Terminal Aerodrome Forecast
Issued by NWS

Home | Current Version | Previous Version | Graphics & Text | Print | Product List | Glossary On
Versions: 1 2 3 4 5 6 7 8 9 10 11 12 13 14 15 16 17 18 19 20 21 22 23 24 25
843
FTUS43 KLOT 081735
TAFMDW
TAF
KMDW 081735Z 0818/0918 29012KT P6SM -SHSN OVC020
     FM090200 31012G20KT 4SM -SN BR OVC018
      TEMPO 0905/0909 2SM -SN
     FM091000 32013G21KT P6SM -SHSN OVC025=

USA.gov is the U.S. government's official web portal to all federal, state and local government web resources and services.